Time;durP1;ratioP1;P1;durP2;ratioP2;P2;SDS_P1;SDS_P2;PMS_P1;PMS_P2;Temp;Humidity;BMP_temperature;BMP_pressure;BME280_temperature;BME280_humidity;BME280_pressure;Samples;Min_cycle;Max_cycle;Signal;HPM_P1;HPM_P2
2022/05/23 00:02:00;;;;;;;2.92;0.98;;;14.80;99.90;;;;;;5029121;28;20037;-70
2022/05/23 00:04:27;;;;;;;4.22;1.30;;;14.80;99.90;;;;;;5027097;28;20051;-70
2022/05/23 00:06:58;;;;;;;3.97;1.38;;;14.80;99.90;;;;;;5030264;28;20484;-70
2022/05/23 00:09:24;;;;;;;4.82;1.30;;;14.80;99.90;;;;;;5018439;28;20117;-70
2022/05/23 00:11:51;;;;;;;2.13;1.00;;;14.70;99.90;;;;;;5031495;28;20049;-70
2022/05/23 00:14:17;;;;;;;3.35;1.17;;;14.80;99.90;;;;;;5010012;28;20037;-70
2022/05/23 00:16:46;;;;;;;1.70;1.05;;;14.70;99.90;;;;;;5026893;28;20038;-69
2022/05/23 00:19:13;;;;;;;4.30;1.30;;;14.70;99.90;;;;;;5015597;28;20046;-70
2022/05/23 00:21:41;;;;;;;4.53;1.67;;;14.70;99.90;;;;;;5005426;28;20063;-70
2022/05/23 00:24:11;;;;;;;2.92;1.00;;;14.70;99.90;;;;;;5035473;28;20161;-70
2022/05/23 00:26:38;;;;;;;3.20;1.38;;;14.70;99.90;;;;;;5019839;28;20194;-71
2022/05/23 00:29:04;;;;;;;2.97;1.15;;;14.60;99.90;;;;;;5028018;28;20461;-70
2022/05/23 00:31:29;;;;;;;3.77;1.23;;;14.60;99.90;;;;;;5010859;28;20066;-69
2022/05/23 00:36:40;;;;;;;3.28;1.38;;;14.60;99.90;;;;;;5024634;28;20045;-69
2022/05/23 00:39:06;;;;;;;2.03;1.00;;;14.50;99.90;;;;;;5023354;28;20052;-70
2022/05/23 00:44:28;;;;;;;2.95;1.10;;;14.50;99.90;;;;;;5020996;28;20041;-70
2022/05/23 00:46:56;;;;;;;3.65;1.10;;;14.50;99.90;;;;;;5027323;28;20046;-71
2022/05/23 00:49:26;;;;;;;5.05;1.42;;;14.50;99.90;;;;;;5022310;28;20094;-69
2022/05/23 00:51:53;;;;;;;5.25;1.25;;;14.50;99.90;;;;;;5029544;28;20615;-70
2022/05/23 00:54:20;;;;;;;2.45;1.15;;;14.50;99.90;;;;;;5007361;28;20033;-70
2022/05/23 00:56:48;;;;;;;2.10;1.05;;;14.50;99.90;;;;;;5015311;28;20118;-70
2022/05/23 00:59:18;;;;;;;2.67;1.10;;;14.50;99.90;;;;;;5025017;28;20049;-70
2022/05/23 01:01:44;;;;;;;2.35;1.00;;;14.50;99.90;;;;;;5016447;28;20128;-70
2022/05/23 01:04:10;;;;;;;5.50;1.15;;;14.50;99.90;;;;;;5029957;28;20041;-70
2022/05/23 01:06:35;;;;;;;3.70;1.10;;;14.40;99.90;;;;;;5019931;28;20037;-69
2022/05/23 01:09:01;;;;;;;1.60;0.88;;;14.40;99.90;;;;;;5022131;28;20041;-70
2022/05/23 01:11:27;;;;;;;1.83;0.88;;;14.40;99.90;;;;;;5015601;28;20218;-70
2022/05/23 01:13:53;;;;;;;5.53;1.00;;;14.40;99.90;;;;;;4997247;28;20045;-71
2022/05/23 01:16:21;;;;;;;3.35;1.13;;;14.40;99.90;;;;;;4987984;28;20078;-70
2022/05/23 01:18:47;;;;;;;3.45;1.30;;;14.40;99.90;;;;;;5007726;28;20056;-70
2022/05/23 01:21:32;;;;;;;2.47;1.27;;;14.30;99.90;;;;;;4991587;28;20125;-71
2022/05/23 01:24:13;;;;;;;3.78;1.10;;;14.40;99.90;;;;;;5014134;28;20040;-70
2022/05/23 01:26:39;;;;;;;2.25;0.82;;;14.40;99.90;;;;;;5023988;28;20168;-70
2022/05/23 01:29:12;;;;;;;1.97;1.20;;;14.40;99.90;;;;;;5015800;28;20326;-70
2022/05/23 01:31:39;;;;;;;2.90;1.08;;;14.40;99.90;;;;;;5001616;28;20304;-70
2022/05/23 01:34:05;;;;;;;3.47;1.42;;;14.40;99.90;;;;;;5012617;28;20086;-71
2022/05/23 01:36:30;;;;;;;3.00;1.07;;;14.40;99.90;;;;;;5005526;28;20132;-70
2022/05/23 01:38:56;;;;;;;3.60;1.10;;;14.40;99.90;;;;;;5019200;28;20296;-70
2022/05/23 01:41:21;;;;;;;3.10;1.10;;;14.40;99.90;;;;;;5022621;28;20044;-83
2022/05/23 01:43:47;;;;;;;2.53;1.00;;;14.40;99.90;;;;;;5014949;28;20295;-70
2022/05/23 01:46:13;;;;;;;1.77;0.80;;;14.50;99.90;;;;;;5012858;28;20118;-71
2022/05/23 01:48:38;;;;;;;1.40;0.90;;;14.50;99.90;;;;;;5027453;28;20041;-70
2022/05/23 01:51:04;;;;;;;4.00;1.47;;;14.50;99.90;;;;;;5020496;28;20128;-70
2022/05/23 01:53:30;;;;;;;5.60;0.93;;;14.50;99.90;;;;;;5019782;28;20751;-70
2022/05/23 01:55:57;;;;;;;5.40;1.45;;;14.50;99.90;;;;;;5021142;28;20042;-70
2022/05/23 02:01:13;;;;;;;1.50;0.85;;;14.50;99.90;;;;;;5027106;28;20045;-70
2022/05/23 02:03:41;;;;;;;4.18;1.00;;;14.50;99.90;;;;;;5013714;28;20053;-70
2022/05/23 02:06:07;;;;;;;1.80;1.00;;;14.60;99.90;;;;;;5014855;28;20510;-70
2022/05/23 02:08:32;;;;;;;3.92;1.10;;;14.60;99.90;;;;;;5018642;28;20053;-70
2022/05/23 02:10:58;;;;;;;2.70;1.63;;;14.50;99.90;;;;;;5008872;28;20077;-70
2022/05/23 02:13:24;;;;;;;2.63;0.77;;;14.50;99.90;;;;;;5001632;28;20046;-70
2022/05/23 02:15:49;;;;;;;2.33;0.97;;;14.50;99.90;;;;;;5000811;28;20376;-70
2022/05/23 02:18:15;;;;;;;2.80;1.00;;;14.50;99.90;;;;;;5021004;28;20058;-70
2022/05/23 02:20:40;;;;;;;3.63;0.83;;;14.50;99.90;;;;;;5021921;28;20038;-71
2022/05/23 02:23:07;;;;;;;2.90;0.90;;;14.50;99.90;;;;;;5021435;28;20103;-70
2022/05/23 02:25:32;;;;;;;2.25;1.10;;;14.40;99.90;;;;;;5020494;28;20050;-70
2022/05/23 02:27:58;;;;;;;1.92;1.13;;;14.40;99.90;;;;;;5002467;28;20049;-71
2022/05/23 02:30:24;;;;;;;5.30;0.90;;;14.40;99.90;;;;;;5014778;28;20038;-70
2022/05/23 02:32:50;;;;;;;2.40;1.13;;;14.40;99.90;;;;;;5008908;28;20303;-71
2022/05/23 02:35:17;;;;;;;5.15;1.38;;;14.30;99.90;;;;;;4995337;28;20380;-70
2022/05/23 02:37:43;;;;;;;4.50;1.30;;;14.30;99.90;;;;;;5023657;28;20087;-70
2022/05/23 02:40:10;;;;;;;2.20;1.08;;;14.30;99.90;;;;;;5014399;28;20029;-70
2022/05/23 02:42:36;;;;;;;2.20;1.00;;;14.20;99.90;;;;;;4990135;28;20332;-70
2022/05/23 02:45:02;;;;;;;1.13;0.70;;;14.20;99.90;;;;;;5013777;28;20188;-70
2022/05/23 02:47:28;;;;;;;2.40;1.13;;;14.10;99.90;;;;;;4994672;28;20045;-70
2022/05/23 02:49:54;;;;;;;2.05;0.77;;;14.10;99.90;;;;;;5011583;28;20033;-70
2022/05/23 02:52:19;;;;;;;3.17;0.90;;;14.00;99.90;;;;;;5004110;28;20042;-70
2022/05/23 02:54:45;;;;;;;4.97;1.37;;;13.90;99.90;;;;;;5004931;28;20319;-70
2022/05/23 02:57:11;;;;;;;1.33;0.90;;;13.90;99.90;;;;;;4993287;28;20130;-71
2022/05/23 02:59:36;;;;;;;1.97;1.00;;;13.80;99.90;;;;;;4994581;28;20048;-70
2022/05/23 03:04:46;;;;;;;4.07;1.25;;;13.80;99.90;;;;;;5009015;28;20037;-70
2022/05/23 03:07:12;;;;;;;3.35;1.58;;;13.70;99.90;;;;;;5018184;28;20037;-70
2022/05/23 03:09:37;;;;;;;2.13;1.33;;;13.70;99.90;;;;;;4993675;28;20038;-70
2022/05/23 03:12:04;;;;;;;1.43;1.00;;;13.70;99.90;;;;;;5026404;28;20370;-70
2022/05/23 03:14:29;;;;;;;2.30;1.10;;;13.60;99.90;;;;;;5017559;28;20625;-70
2022/05/23 03:17:02;;;;;;;2.63;1.10;;;13.60;99.90;;;;;;5027916;28;20044;-70
2022/05/23 03:19:28;;;;;;;4.15;1.02;;;13.60;99.90;;;;;;5002706;28;20080;-70
2022/05/23 03:27:22;;;;;;;3.58;1.30;;;13.50;99.90;;;;;;5016343;28;20042;-69
2022/05/23 03:29:47;;;;;;;2.20;1.40;;;13.50;99.90;;;;;;4996261;28;20405;-70
2022/05/23 03:32:13;;;;;;;2.07;1.17;;;13.50;99.90;;;;;;5016094;28;20472;-71
2022/05/23 03:34:39;;;;;;;2.07;1.13;;;13.50;99.90;;;;;;5020439;28;20040;-70
2022/05/23 03:37:06;;;;;;;3.42;1.25;;;13.50;99.90;;;;;;5027387;28;20045;-70
2022/05/23 03:39:31;;;;;;;3.95;1.30;;;13.50;99.90;;;;;;5003495;28;20416;-70
2022/05/23 03:41:57;;;;;;;2.58;1.60;;;13.50;99.90;;;;;;5009507;28;20053;-71
2022/05/23 03:44:22;;;;;;;4.07;1.50;;;13.50;99.90;;;;;;5011430;28;20041;-70
2022/05/23 03:46:48;;;;;;;3.80;1.47;;;13.50;99.90;;;;;;5006890;28;20052;-70
2022/05/23 03:49:14;;;;;;;1.80;1.03;;;13.50;99.90;;;;;;5035125;22;20403;-68
2022/05/23 03:51:40;;;;;;;2.63;1.30;;;13.50;99.90;;;;;;5009113;28;20306;-68
2022/05/23 03:54:06;;;;;;;8.23;2.08;;;13.50;99.90;;;;;;5014155;28;20053;-68
2022/05/23 03:56:31;;;;;;;3.75;1.27;;;13.50;99.90;;;;;;5023727;28;20037;-68
2022/05/23 03:58:57;;;;;;;3.07;1.27;;;13.50;99.90;;;;;;5006152;28;20564;-68
2022/05/23 04:01:26;;;;;;;3.47;1.40;;;13.50;99.90;;;;;;5003987;28;20038;-68
2022/05/23 04:03:51;;;;;;;3.83;1.48;;;13.50;99.90;;;;;;5003595;28;20297;-68
2022/05/23 04:06:17;;;;;;;2.40;1.47;;;13.50;99.90;;;;;;5000173;28;20485;-68
2022/05/23 04:08:42;;;;;;;3.33;1.23;;;13.50;99.90;;;;;;5002090;28;20046;-69
2022/05/23 04:11:08;;;;;;;3.23;1.43;;;13.40;99.90;;;;;;5004215;28;20038;-68
2022/05/23 04:13:34;;;;;;;3.80;2.17;;;13.40;99.90;;;;;;5003784;28;20447;-68
2022/05/23 04:16:00;;;;;;;2.10;1.35;;;13.40;99.90;;;;;;4994654;28;20050;-69
2022/05/23 04:18:26;;;;;;;5.17;1.43;;;13.40;99.90;;;;;;4999582;28;20610;-68
2022/05/23 04:20:52;;;;;;;2.80;1.43;;;13.40;99.90;;;;;;5001258;28;20305;-68
2022/05/23 04:23:17;;;;;;;1.85;1.38;;;13.40;99.90;;;;;;5000618;28;20613;-68
2022/05/23 04:25:46;;;;;;;3.53;1.98;;;13.40;99.90;;;;;;5000136;28;20613;-69
2022/05/23 04:28:13;;;;;;;5.53;1.42;;;13.50;99.90;;;;;;5005178;28;20049;-68
2022/05/23 04:30:39;;;;;;;5.10;1.90;;;13.50;99.90;;;;;;4993296;28;20085;-68
2022/05/23 04:35:55;;;;;;;2.60;1.42;;;13.50;99.90;;;;;;5000198;28;20281;-68
2022/05/23 04:38:20;;;;;;;3.08;1.50;;;13.50;99.90;;;;;;5000992;28;20038;-68
2022/05/23 04:40:47;;;;;;;3.08;1.30;;;13.50;99.90;;;;;;5005667;28;20045;-68
2022/05/23 04:43:12;;;;;;;3.38;1.60;;;13.50;99.90;;;;;;5002591;28;20518;-68
2022/05/23 04:45:38;;;;;;;3.90;1.80;;;13.50;99.90;;;;;;4999222;28;20073;-68
2022/05/23 04:50:48;;;;;;;6.00;2.00;;;13.50;99.90;;;;;;5005425;28;20050;-68
2022/05/23 04:53:15;;;;;;;3.72;1.85;;;13.60;99.90;;;;;;5002773;28;20414;-68
2022/05/23 04:55:41;;;;;;;3.88;1.85;;;13.60;99.90;;;;;;5005469;28;20092;-69
2022/05/23 04:58:07;;;;;;;2.05;1.38;;;13.60;99.90;;;;;;5006078;28;20048;-69
2022/05/23 05:00:34;;;;;;;5.05;1.55;;;13.60;99.90;;;;;;4998583;28;20034;-68
2022/05/23 05:02:59;;;;;;;;;;;13.60;99.90;;;;;;5005468;28;20107;-68
2022/05/23 05:05:29;;;;;;;2.90;1.95;;;13.70;99.90;;;;;;4998376;28;19918;-68
2022/05/23 05:07:56;;;;;;;2.72;1.42;;;13.60;99.90;;;;;;5004881;28;20044;-68
2022/05/23 05:10:25;;;;;;;4.10;1.77;;;13.70;99.90;;;;;;5005719;28;20046;-69
2022/05/23 05:12:51;;;;;;;5.18;2.45;;;13.70;99.90;;;;;;5006541;28;20227;-68
2022/05/23 05:15:17;;;;;;;4.45;2.30;;;13.70;99.90;;;;;;4999726;28;20473;-69
2022/05/23 05:17:42;;;;;;;3.78;2.00;;;13.70;99.90;;;;;;5010657;28;20054;-68
2022/05/23 05:20:08;;;;;;;2.83;2.10;;;13.70;99.90;;;;;;5012309;28;20037;-68
2022/05/23 05:22:35;;;;;;;4.18;1.77;;;13.70;99.90;;;;;;4987002;28;20378;-69
2022/05/23 05:25:03;;;;;;;3.00;2.03;;;13.80;99.90;;;;;;5013334;28;20084;-68
2022/05/23 05:27:29;;;;;;;3.65;2.17;;;13.80;99.90;;;;;;5010111;28;20073;-69
2022/05/23 05:29:55;;;;;;;3.25;1.98;;;13.80;99.90;;;;;;4998098;28;20041;-68
2022/05/23 05:32:36;;;;;;;3.95;2.08;;;13.80;99.90;;;;;;5002701;28;20326;-68
2022/05/23 05:35:23;;;;;;;6.60;1.88;;;13.80;99.90;;;;;;4998948;28;20054;-69
2022/05/23 05:38:03;;;;;;;2.58;1.90;;;13.90;99.90;;;;;;5002420;28;20046;-69
2022/05/23 05:40:34;;;;;;;5.25;2.35;;;13.90;99.90;;;;;;4996928;28;20052;-71
2022/05/23 05:43:06;;;;;;;4.80;2.38;;;14.00;99.90;;;;;;5002397;28;20038;-70
2022/05/23 05:46:00;;;;;;;5.18;2.15;;;13.90;99.90;;;;;;5008780;28;20046;-68
2022/05/23 05:48:27;;;;;;;4.20;2.17;;;14.00;99.90;;;;;;5000884;28;20038;-68
2022/05/23 05:50:53;;;;;;;6.47;2.10;;;14.00;99.90;;;;;;5003249;28;20081;-69
2022/05/23 05:53:24;;;;;;;3.27;2.10;;;14.00;99.90;;;;;;5002456;28;20076;-68
2022/05/23 05:55:50;;;;;;;5.30;2.53;;;14.00;99.90;;;;;;4997667;28;20327;-68
2022/05/23 05:58:17;;;;;;;2.90;2.10;;;14.00;99.90;;;;;;4998029;28;20041;-68
2022/05/23 06:00:43;;;;;;;4.90;2.80;;;14.00;99.90;;;;;;5004439;28;20037;-68
2022/05/23 06:03:08;;;;;;;4.17;1.90;;;14.10;99.90;;;;;;5005612;28;20392;-68
2022/05/23 06:11:23;;;;;;;7.00;2.60;;;14.10;99.90;;;;;;4999008;28;20518;-68
2022/05/23 06:14:00;;;;;;;4.15;2.22;;;14.30;99.90;;;;;;5003495;28;20045;-70
2022/05/23 06:16:30;;;;;;;4.10;2.55;;;14.40;99.90;;;;;;5001481;28;20068;-68
2022/05/23 06:18:57;;;;;;;4.45;2.38;;;14.40;99.90;;;;;;5000191;28;20494;-69
2022/05/23 06:21:23;;;;;;;3.67;2.33;;;14.50;99.90;;;;;;4997338;28;20038;-68
2022/05/23 06:23:49;;;;;;;;;;;14.60;99.90;;;;;;4998761;28;20052;-69
2022/05/23 06:26:16;;;;;;;3.70;2.40;;;14.60;99.90;;;;;;4994680;28;19917;-68
2022/05/23 06:28:43;;;;;;;5.50;2.20;;;14.70;99.90;;;;;;4993725;28;20041;-68
2022/05/23 06:31:10;;;;;;;5.82;2.75;;;14.70;99.90;;;;;;5005385;28;20050;-68
2022/05/23 06:33:36;;;;;;;5.65;2.53;;;14.80;99.90;;;;;;5002721;28;20038;-68
2022/05/23 06:36:03;;;;;;;5.68;2.35;;;14.80;99.90;;;;;;4987342;28;20069;-68
2022/05/23 06:38:29;;;;;;;6.20;2.53;;;14.90;99.90;;;;;;5005272;28;20053;-69
2022/05/23 06:40:55;;;;;;;5.38;2.70;;;15.00;99.90;;;;;;5005849;28;20073;-68
2022/05/23 06:43:21;;;;;;;4.70;2.77;;;15.10;99.90;;;;;;5005843;28;20291;-68
2022/05/23 06:45:47;;;;;;;3.25;2.17;;;15.10;99.90;;;;;;4999542;28;20026;-68
2022/05/23 06:48:14;;;;;;;4.47;2.63;;;15.10;99.90;;;;;;4981978;28;20374;-69
2022/05/23 06:50:39;;;;;;;6.78;3.00;;;15.20;99.90;;;;;;4999603;28;20050;-68
2022/05/23 06:53:05;;;;;;;6.95;3.67;;;15.20;99.90;;;;;;5005178;28;20636;-68
2022/05/23 06:55:33;;;;;;;5.18;2.60;;;15.30;99.90;;;;;;5004856;28;20053;-68
2022/05/23 06:57:59;;;;;;;4.03;2.42;;;15.30;99.90;;;;;;5005882;28;20429;-68
2022/05/23 07:00:25;;;;;;;8.35;2.40;;;15.40;99.90;;;;;;4996857;28;20055;-68
2022/05/23 07:02:51;;;;;;;9.02;2.47;;;15.40;99.90;;;;;;5005369;28;20038;-68
2022/05/23 07:13:32;;;;;;;5.10;2.95;;;15.60;99.90;;;;;;5003375;28;20041;-68
2022/05/23 07:15:58;;;;;;;6.75;2.78;;;15.70;99.90;;;;;;4999633;28;20041;-68
2022/05/23 07:18:26;;;;;;;7.03;3.00;;;15.80;99.90;;;;;;4998882;28;20045;-68
2022/05/23 07:20:53;;;;;;;5.68;2.72;;;15.90;99.90;;;;;;4995104;28;20085;-68
2022/05/23 07:23:19;;;;;;;3.80;2.65;;;15.90;99.90;;;;;;5002660;28;20041;-68
2022/05/23 07:25:45;;;;;;;4.05;2.47;;;16.00;99.90;;;;;;4996095;28;20433;-68
2022/05/23 07:28:10;;;;;;;4.07;2.58;;;16.10;99.90;;;;;;5000671;28;20033;-68
2022/05/23 07:30:36;;;;;;;5.10;2.73;;;16.10;99.90;;;;;;5006069;28;20549;-69
2022/05/23 07:33:02;;;;;;;4.03;2.77;;;16.30;99.90;;;;;;5002423;28;21903;-68
2022/05/23 07:35:27;;;;;;;6.25;3.05;;;16.30;99.90;;;;;;5001714;28;20311;-69
2022/05/23 07:37:53;;;;;;;5.77;2.60;;;16.40;99.90;;;;;;5004316;28;20046;-68
2022/05/23 07:40:20;;;;;;;;;;;16.60;99.90;;;;;;5003985;28;20052;-68
2022/05/23 07:42:46;;;;;;;5.70;3.03;;;16.60;99.90;;;;;;5001606;28;20024;-69
2022/05/23 07:45:13;;;;;;;4.20;2.80;;;16.70;99.90;;;;;;5000863;28;20477;-68
2022/05/23 07:47:39;;;;;;;6.65;3.08;;;16.80;99.90;;;;;;5000627;28;20056;-68
2022/05/23 07:50:07;;;;;;;6.57;2.88;;;16.90;99.90;;;;;;4989885;28;20049;-68
2022/05/23 07:52:34;;;;;;;6.03;3.15;;;17.00;99.90;;;;;;5000951;28;20117;-68
2022/05/23 08:00:32;;;;;;;8.98;2.97;;;17.40;99.90;;;;;;4994878;28;20069;-68
2022/05/23 08:03:16;;;;;;;5.05;2.85;;;17.50;99.90;;;;;;4987975;28;20052;-68
2022/05/23 08:05:43;;;;;;;6.65;2.75;;;17.60;99.90;;;;;;4994136;28;20495;-68
2022/05/23 08:08:09;;;;;;;5.30;2.70;;;17.60;99.90;;;;;;4985504;28;20076;-69
2022/05/23 08:10:34;;;;;;;5.97;2.70;;;17.60;99.90;;;;;;4998832;28;20498;-68
2022/05/23 08:13:03;;;;;;;5.97;3.08;;;17.60;99.90;;;;;;4995967;28;20042;-68
2022/05/23 08:15:29;;;;;;;6.78;3.30;;;17.80;99.90;;;;;;4976280;28;20054;-68
2022/05/23 08:17:55;;;;;;;3.70;2.53;;;17.80;99.90;;;;;;4999299;28;20135;-68
2022/05/23 08:20:21;;;;;;;5.75;2.83;;;17.90;99.90;;;;;;5001402;28;20042;-68
2022/05/23 08:22:51;;;;;;;5.32;3.08;;;17.90;99.90;;;;;;4997752;28;20103;-68
2022/05/23 08:25:18;;;;;;;4.40;2.88;;;18.00;99.90;;;;;;5007718;28;20064;-69
2022/05/23 08:27:44;;;;;;;7.35;3.17;;;18.00;99.90;;;;;;5003309;28;20071;-68
2022/05/23 08:30:10;;;;;;;4.07;2.65;;;18.00;99.90;;;;;;5005917;28;20563;-68
2022/05/23 08:32:35;;;;;;;7.85;3.28;;;18.10;99.90;;;;;;5002918;28;20038;-68
2022/05/23 08:35:01;;;;;;;4.32;2.70;;;18.20;99.90;;;;;;4997871;28;20684;-69
2022/05/23 08:37:27;;;;;;;7.10;3.00;;;18.30;99.90;;;;;;4998710;28;20131;-68
2022/05/23 08:39:53;;;;;;;7.65;3.53;;;18.30;99.90;;;;;;5007085;28;20038;-68
2022/05/23 08:42:37;;;;;;;;;;;18.40;99.90;;;;;;5004930;28;20505;-68
2022/05/23 08:45:37;;;;;;;5.50;2.58;;;18.50;99.90;;;;;;5002631;28;20309;-68
2022/05/23 08:48:11;;;;;;;7.50;3.30;;;18.60;99.90;;;;;;4992905;28;20123;-68
2022/05/23 08:50:46;;;;;;;7.03;2.90;;;18.70;99.90;;;;;;5004219;28;20049;-68
2022/05/23 08:53:20;;;;;;;5.35;2.20;;;18.90;99.90;;;;;;5003703;28;20412;-69
2022/05/23 08:55:52;;;;;;;4.38;2.55;;;19.10;99.90;;;;;;4997497;28;20045;-68
2022/05/23 08:58:23;;;;;;;5.60;3.20;;;19.20;99.90;;;;;;5005333;28;20045;-71
2022/05/23 09:01:01;;;;;;;10.50;2.70;;;19.30;99.90;;;;;;4996971;28;20053;-74
2022/05/23 09:03:40;;;;;;;4.90;2.72;;;19.40;99.90;;;;;;4996643;28;20093;-70
2022/05/23 09:06:34;;;;;;;4.47;2.80;;;19.50;99.90;;;;;;4988806;28;20368;-70
2022/05/23 09:09:02;;;;;;;5.18;2.50;;;19.70;99.90;;;;;;4999421;28;20622;-70
2022/05/23 09:11:33;;;;;;;5.32;2.85;;;19.80;99.90;;;;;;5005134;28;20677;-73
2022/05/23 09:13:59;;;;;;;6.70;3.35;;;20.10;99.90;;;;;;4996506;28;20038;-70
2022/05/23 09:16:40;;;;;;;6.95;2.90;;;20.20;99.90;;;;;;4995520;28;20042;-71
2022/05/23 09:19:31;;;;;;;5.88;2.63;;;20.20;99.90;;;;;;4999523;28;20042;-71
2022/05/23 09:22:14;;;;;;;7.00;2.55;;;20.40;99.90;;;;;;5001257;28;20115;-67
2022/05/23 09:24:57;;;;;;;5.32;2.90;;;20.50;99.90;;;;;;5009519;28;20034;-68
2022/05/23 09:27:36;;;;;;;7.10;2.80;;;20.70;99.90;;;;;;5004934;28;20482;-68
2022/05/23 09:30:08;;;;;;;5.05;3.42;;;20.80;99.90;;;;;;4994098;28;20042;-68
2022/05/23 09:32:52;;;;;;;6.35;2.95;;;21.00;99.90;;;;;;4995278;28;20030;-68
2022/05/23 09:35:25;;;;;;;7.45;3.83;;;21.10;99.90;;;;;;5005835;28;20116;-68
2022/05/23 09:38:16;;;;;;;6.47;2.83;;;21.20;99.90;;;;;;4996490;28;20128;-68
2022/05/23 09:40:42;;;;;;;5.00;2.90;;;21.20;99.90;;;;;;5005169;28;20054;-68
2022/05/23 09:49:07;;;;;;;5.82;3.03;;;21.40;99.90;;;;;;5006262;28;20350;-68
2022/05/23 09:51:55;;;;;;;7.55;3.40;;;21.50;99.90;;;;;;5007465;28;20053;-68
2022/05/23 09:54:33;;;;;;;7.75;2.90;;;21.50;99.90;;;;;;5002050;28;20125;-68
2022/05/23 09:57:02;;;;;;;5.03;2.75;;;21.50;99.90;;;;;;5004062;28;20042;-68
2022/05/23 09:59:34;;;;;;;5.97;3.38;;;21.50;99.90;;;;;;5005411;28;20037;-68
2022/05/23 10:02:29;;;;;;;5.55;2.72;;;21.60;99.90;;;;;;5004409;28;20550;-68
2022/05/23 10:04:55;;;;;;;3.90;2.70;;;21.70;99.90;;;;;;4978981;28;20434;-68
2022/05/23 10:07:29;;;;;;;7.63;2.17;;;21.80;99.90;;;;;;5001538;28;20034;-68
2022/05/23 10:09:58;;;;;;;4.18;2.38;;;21.90;99.90;;;;;;5006509;28;20459;-68
2022/05/23 10:12:24;;;;;;;6.43;2.80;;;22.00;99.90;;;;;;5005018;28;20038;-68
2022/05/23 10:15:02;;;;;;;6.60;2.72;;;22.10;99.90;;;;;;5007154;28;20121;-68
2022/05/23 10:17:30;;;;;;;4.15;2.55;;;22.30;99.90;;;;;;5004615;28;20441;-68
2022/05/23 10:20:16;;;;;;;5.18;2.75;;;22.50;99.90;;;;;;4996268;28;20069;-68
2022/05/23 10:22:54;;;;;;;4.13;2.25;;;22.70;99.90;;;;;;5003171;28;20391;-68
2022/05/23 10:25:20;;;;;;;5.55;3.03;;;22.90;99.90;;;;;;4976379;28;20172;-68
2022/05/23 10:27:49;;;;;;;6.53;2.70;;;23.00;99.90;;;;;;5005634;28;20527;-68
2022/05/23 10:30:19;;;;;;;5.38;2.50;;;23.10;99.90;;;;;;4996047;28;20677;-68
2022/05/23 10:32:48;;;;;;;4.38;2.08;;;23.30;99.90;;;;;;4992104;28;20326;-68
2022/05/23 10:35:36;;;;;;;4.72;2.25;;;23.30;99.90;;;;;;5005786;28;20045;-68
2022/05/23 10:44:12;;;;;;;4.75;1.88;;;23.60;99.90;;;;;;5001615;28;20050;-68
2022/05/23 10:46:38;;;;;;;4.30;1.73;;;23.70;99.90;;;;;;4982960;28;20133;-68
2022/05/23 10:49:16;;;;;;;3.88;1.90;;;23.80;99.90;;;;;;4999147;28;20054;-68
2022/05/23 10:51:50;;;;;;;2.78;1.55;;;23.90;99.90;;;;;;4990855;28;20517;-68
2022/05/23 10:54:38;;;;;;;2.65;1.33;;;24.20;99.80;;;;;;4996135;28;20398;-68
2022/05/23 10:57:11;;;;;;;3.75;1.50;;;24.20;98.60;;;;;;4990979;28;20054;-68
2022/05/23 11:00:13;;;;;;;2.90;1.52;;;24.30;94.50;;;;;;4991653;28;20365;-68
2022/05/23 11:02:45;;;;;;;3.53;1.73;;;24.30;90.70;;;;;;4999713;28;20077;-68
2022/05/23 11:05:21;;;;;;;3.13;1.70;;;24.30;94.00;;;;;;4992329;28;20033;-68
2022/05/23 11:08:25;;;;;;;2.45;1.50;;;24.40;93.90;;;;;;4994076;28;20038;-68
2022/05/23 11:11:00;;;;;;;3.03;1.45;;;24.50;92.50;;;;;;5000058;28;20394;-68
2022/05/23 11:13:50;;;;;;;2.80;1.35;;;24.50;95.80;;;;;;5007340;28;20045;-68
2022/05/23 11:16:37;;;;;;;3.63;1.02;;;24.50;95.00;;;;;;4997520;28;20045;-68
2022/05/23 11:19:12;;;;;;;3.80;1.38;;;24.60;91.40;;;;;;5003488;28;20041;-68
2022/05/23 11:22:06;;;;;;;1.67;1.10;;;24.70;88.00;;;;;;5001639;28;20034;-68
2022/05/23 11:24:41;;;;;;;3.10;1.38;;;24.70;85.70;;;;;;4998607;28;20046;-68
2022/05/23 11:35:42;;;;;;;3.80;1.38;;;24.90;79.80;;;;;;4994948;28;20469;-68
2022/05/23 11:38:09;;;;;;;2.55;1.48;;;25.00;77.90;;;;;;5005501;28;20050;-68
2022/05/23 11:40:38;;;;;;;3.47;1.17;;;25.10;76.30;;;;;;4998295;28;20030;-68
2022/05/23 11:43:11;;;;;;;1.73;1.00;;;25.20;74.10;;;;;;5000991;28;20117;-68
2022/05/23 11:45:59;;;;;;;3.15;1.20;;;25.40;74.80;;;;;;4999613;28;20526;-68
2022/05/23 11:48:37;;;;;;;3.35;1.58;;;25.40;68.20;;;;;;4995854;28;20064;-68
2022/05/23 11:51:21;;;;;;;3.42;1.48;;;25.40;70.40;;;;;;5003598;28;20064;-68
2022/05/23 11:54:14;;;;;;;4.55;1.20;;;25.30;68.90;;;;;;5005809;28;20423;-68
2022/05/23 11:57:01;;;;;;;4.40;1.63;;;25.20;70.00;;;;;;5001581;28;20509;-69
2022/05/23 11:59:27;;;;;;;3.03;1.38;;;25.10;67.40;;;;;;4999631;28;20305;-68
2022/05/23 12:02:11;;;;;;;3.03;1.40;;;25.10;68.10;;;;;;5010940;28;20033;-69
2022/05/23 12:04:48;;;;;;;2.17;1.38;;;24.90;67.40;;;;;;4995643;28;20933;-68
2022/05/23 12:07:37;;;;;;;4.72;1.52;;;24.80;69.20;;;;;;4991388;28;20149;-68
2022/05/23 12:10:20;;;;;;;3.05;1.52;;;24.60;71.10;;;;;;5002778;28;20094;-68
2022/05/23 12:13:20;;;;;;;3.38;1.17;;;24.50;72.70;;;;;;4997434;28;20538;-69
2022/05/23 12:15:53;;;;;;;1.75;0.93;;;24.50;76.20;;;;;;4982309;28;20527;-68
2022/05/23 12:18:21;;;;;;;1.83;1.15;;;24.50;76.90;;;;;;5001341;28;20073;-68
2022/05/23 12:20:49;;;;;;;4.35;1.60;;;24.50;77.90;;;;;;4987456;28;20042;-69
2022/05/23 12:23:34;;;;;;;6.03;1.67;;;24.50;75.90;;;;;;4997122;28;20038;-68
2022/05/23 12:26:14;;;;;;;5.28;1.65;;;24.40;77.30;;;;;;5008563;28;20042;-68
2022/05/23 12:28:55;;;;;;;3.28;1.67;;;24.40;80.40;;;;;;5002433;28;20494;-68
2022/05/23 12:31:27;;;;;;;3.10;1.20;;;24.30;79.80;;;;;;4989815;28;20092;-68
2022/05/23 12:34:02;;;;;;;2.95;1.48;;;24.20;82.00;;;;;;5003083;28;20045;-68
2022/05/23 12:36:32;;;;;;;2.78;1.23;;;24.20;80.80;;;;;;5004912;28;20045;-68
2022/05/23 12:39:27;;;;;;;5.88;1.20;;;24.10;80.20;;;;;;4995053;28;20074;-68
2022/05/23 12:41:55;;;;;;;3.78;1.30;;;24.10;83.00;;;;;;5000365;28;20064;-68
2022/05/23 12:44:58;;;;;;;2.65;1.40;;;24.10;82.00;;;;;;4997122;28;20072;-68
2022/05/23 12:47:51;;;;;;;3.15;1.50;;;24.00;82.10;;;;;;4996323;28;20034;-68
2022/05/23 12:50:20;;;;;;;3.20;1.45;;;24.00;85.30;;;;;;4988971;28;20038;-68
2022/05/23 12:52:58;;;;;;;2.92;1.23;;;24.00;84.60;;;;;;4995092;28;20048;-68
2022/05/23 12:55:58;;;;;;;4.60;1.65;;;23.90;86.10;;;;;;5001798;28;20038;-69
2022/05/23 12:58:45;;;;;;;1.95;1.20;;;23.80;89.00;;;;;;5003154;28;20045;-68
2022/05/23 13:01:16;;;;;;;2.00;1.10;;;23.70;92.60;;;;;;4998148;28;20050;-68
2022/05/23 13:03:51;;;;;;;3.17;1.65;;;23.60;95.30;;;;;;4997044;28;20492;-69
2022/05/23 13:06:52;;;;;;;5.35;1.60;;;23.50;99.60;;;;;;4988680;28;20034;-68
2022/05/23 13:09:31;;;;;;;4.43;1.75;;;23.30;99.70;;;;;;5003377;28;20113;-69
2022/05/23 13:12:05;;;;;;;5.05;1.83;;;23.10;99.90;;;;;;5001468;28;20056;-69
2022/05/23 13:14:55;;;;;;;4.03;1.92;;;23.00;99.90;;;;;;4995923;28;20069;-68
2022/05/23 13:17:28;;;;;;;2.35;1.50;;;22.80;99.90;;;;;;4998791;28;20080;-69
2022/05/23 13:22:38;;;;;;;3.33;1.85;;;22.50;99.90;;;;;;5003723;28;20029;-69
2022/05/23 13:25:04;;;;;;;;;;;22.40;99.90;;;;;;5000162;28;20052;-69
2022/05/23 13:27:45;;;;;;;4.03;1.70;;;22.20;99.90;;;;;;5001205;28;19928;-68
2022/05/23 13:30:17;;;;;;;3.78;1.77;;;22.10;99.90;;;;;;4982750;28;20042;-68
2022/05/23 13:32:44;;;;;;;4.25;1.92;;;22.00;99.90;;;;;;4988047;28;20041;-68
2022/05/23 13:35:21;;;;;;;3.50;1.92;;;22.00;99.90;;;;;;4999494;28;20069;-68
2022/05/23 13:37:47;;;;;;;5.22;2.13;;;22.00;99.90;;;;;;4994874;28;20128;-68
2022/05/23 13:40:14;;;;;;;;;;;21.90;99.90;;;;;;4993693;28;20523;-68
2022/05/23 13:42:40;;;;;;;4.68;1.95;;;21.90;99.90;;;;;;5007377;28;19922;-68
2022/05/23 13:45:16;;;;;;;3.75;1.85;;;21.90;99.90;;;;;;5009102;28;20034;-68
2022/05/23 13:47:53;;;;;;;4.40;1.93;;;21.90;99.90;;;;;;4997545;28;20509;-68
2022/05/23 13:50:28;;;;;;;6.28;2.70;;;21.90;99.90;;;;;;4993159;28;20418;-68
2022/05/23 13:53:06;;;;;;;2.50;1.75;;;21.90;99.90;;;;;;4991958;28;20290;-68
2022/05/23 13:55:39;;;;;;;3.97;1.92;;;21.90;99.90;;;;;;5006777;28;20050;-69
2022/05/23 13:58:17;;;;;;;2.72;1.55;;;21.90;99.90;;;;;;4993218;28;20053;-68
2022/05/23 14:01:09;;;;;;;3.33;1.73;;;22.00;99.90;;;;;;4995425;28;20069;-68
2022/05/23 14:03:46;;;;;;;3.25;1.65;;;22.00;99.90;;;;;;4997038;28;20097;-68
2022/05/23 14:06:17;;;;;;;3.17;2.15;;;22.00;99.90;;;;;;4999105;28;20038;-68
2022/05/23 14:08:50;;;;;;;4.50;1.85;;;22.00;99.90;;;;;;5002916;28;20077;-68
2022/05/23 14:11:26;;;;;;;3.95;1.77;;;22.00;99.90;;;;;;5004372;28;20045;-68
2022/05/23 14:13:57;;;;;;;4.55;2.15;;;21.90;99.90;;;;;;5004267;28;20381;-68